sensor_id;sensor_type;location;lat;lon;timestamp;P1;durP1;ratioP1;P2;durP2;ratioP2
4323;SDS011;2175;51.018;6.994;2023-12-29T00:00:53;4.33;;;1.80;;
4323;SDS011;2175;51.018;6.994;2023-12-29T00:03:19;3.83;;;1.90;;
4323;SDS011;2175;51.018;6.994;2023-12-29T00:05:45;6.40;;;1.90;;
4323;SDS011;2175;51.018;6.994;2023-12-29T00:08:11;4.47;;;1.83;;
4323;SDS011;2175;51.018;6.994;2023-12-29T00:10:37;7.43;;;2.00;;
4323;SDS011;2175;51.018;6.994;2023-12-29T00:13:03;7.80;;;2.33;;
4323;SDS011;2175;51.018;6.994;2023-12-29T00:15:29;3.50;;;1.80;;
4323;SDS011;2175;51.018;6.994;2023-12-29T00:17:55;3.17;;;1.50;;
4323;SDS011;2175;51.018;6.994;2023-12-29T00:20:21;3.60;;;1.60;;
4323;SDS011;2175;51.018;6.994;2023-12-29T00:22:47;6.03;;;2.00;;
4323;SDS011;2175;51.018;6.994;2023-12-29T00:25:13;6.37;;;1.60;;
4323;SDS011;2175;51.018;6.994;2023-12-29T00:27:39;8.13;;;2.20;;
4323;SDS011;2175;51.018;6.994;2023-12-29T00:30:05;4.40;;;1.87;;
4323;SDS011;2175;51.018;6.994;2023-12-29T00:32:31;5.33;;;1.80;;
4323;SDS011;2175;51.018;6.994;2023-12-29T00:34:57;4.97;;;1.93;;
4323;SDS011;2175;51.018;6.994;2023-12-29T00:37:23;5.23;;;2.03;;
4323;SDS011;2175;51.018;6.994;2023-12-29T00:39:49;6.30;;;2.03;;
4323;SDS011;2175;51.018;6.994;2023-12-29T00:42:16;6.00;;;1.73;;
4323;SDS011;2175;51.018;6.994;2023-12-29T00:44:42;6.03;;;2.60;;
4323;SDS011;2175;51.018;6.994;2023-12-29T00:47:09;9.50;;;2.37;;
4323;SDS011;2175;51.018;6.994;2023-12-29T00:49:38;4.90;;;2.20;;
4323;SDS011;2175;51.018;6.994;2023-12-29T00:52:05;5.03;;;2.20;;
4323;SDS011;2175;51.018;6.994;2023-12-29T00:54:31;4.90;;;2.10;;
4323;SDS011;2175;51.018;6.994;2023-12-29T00:56:57;4.60;;;1.80;;
4323;SDS011;2175;51.018;6.994;2023-12-29T00:59:23;4.50;;;2.03;;
4323;SDS011;2175;51.018;6.994;2023-12-29T01:01:49;7.93;;;2.07;;
4323;SDS011;2175;51.018;6.994;2023-12-29T01:04:15;8.50;;;2.30;;
4323;SDS011;2175;51.018;6.994;2023-12-29T01:06:41;6.50;;;1.93;;
4323;SDS011;2175;51.018;6.994;2023-12-29T01:09:07;8.00;;;2.30;;
4323;SDS011;2175;51.018;6.994;2023-12-29T01:11:34;8.33;;;2.07;;
4323;SDS011;2175;51.018;6.994;2023-12-29T01:14:00;7.50;;;2.10;;
4323;SDS011;2175;51.018;6.994;2023-12-29T01:16:26;8.40;;;2.30;;
4323;SDS011;2175;51.018;6.994;2023-12-29T01:18:52;8.27;;;2.40;;
4323;SDS011;2175;51.018;6.994;2023-12-29T01:21:18;8.27;;;2.30;;
4323;SDS011;2175;51.018;6.994;2023-12-29T01:23:44;8.73;;;2.23;;
4323;SDS011;2175;51.018;6.994;2023-12-29T01:26:10;10.07;;;2.73;;
4323;SDS011;2175;51.018;6.994;2023-12-29T01:28:36;10.00;;;2.40;;
4323;SDS011;2175;51.018;6.994;2023-12-29T01:31:02;5.63;;;2.03;;
4323;SDS011;2175;51.018;6.994;2023-12-29T01:33:28;7.13;;;2.70;;
4323;SDS011;2175;51.018;6.994;2023-12-29T01:35:55;7.67;;;2.50;;
4323;SDS011;2175;51.018;6.994;2023-12-29T01:38:21;6.33;;;2.00;;
4323;SDS011;2175;51.018;6.994;2023-12-29T01:40:47;9.60;;;2.40;;
4323;SDS011;2175;51.018;6.994;2023-12-29T01:43:13;7.90;;;2.30;;
4323;SDS011;2175;51.018;6.994;2023-12-29T01:45:39;8.03;;;2.13;;
4323;SDS011;2175;51.018;6.994;2023-12-29T01:48:05;10.10;;;2.23;;
4323;SDS011;2175;51.018;6.994;2023-12-29T01:50:31;6.83;;;1.80;;
4323;SDS011;2175;51.018;6.994;2023-12-29T01:52:58;8.80;;;2.57;;
4323;SDS011;2175;51.018;6.994;2023-12-29T01:55:25;5.67;;;2.07;;
4323;SDS011;2175;51.018;6.994;2023-12-29T01:57:52;6.93;;;2.30;;
4323;SDS011;2175;51.018;6.994;2023-12-29T02:00:18;7.63;;;2.50;;
4323;SDS011;2175;51.018;6.994;2023-12-29T02:02:47;5.50;;;2.10;;
4323;SDS011;2175;51.018;6.994;2023-12-29T02:05:13;8.40;;;2.73;;
4323;SDS011;2175;51.018;6.994;2023-12-29T02:07:41;8.30;;;2.90;;
4323;SDS011;2175;51.018;6.994;2023-12-29T02:10:07;9.20;;;2.40;;
4323;SDS011;2175;51.018;6.994;2023-12-29T02:12:34;4.63;;;2.00;;
4323;SDS011;2175;51.018;6.994;2023-12-29T02:15:04;9.40;;;2.70;;
4323;SDS011;2175;51.018;6.994;2023-12-29T02:17:51;9.43;;;2.93;;
4323;SDS011;2175;51.018;6.994;2023-12-29T02:20:18;10.40;;;2.63;;
4323;SDS011;2175;51.018;6.994;2023-12-29T02:22:45;7.30;;;2.30;;
4323;SDS011;2175;51.018;6.994;2023-12-29T02:25:11;10.80;;;2.97;;
4323;SDS011;2175;51.018;6.994;2023-12-29T02:27:40;14.00;;;2.50;;
4323;SDS011;2175;51.018;6.994;2023-12-29T02:30:25;14.00;;;2.60;;
4323;SDS011;2175;51.018;6.994;2023-12-29T02:32:57;9.03;;;2.47;;
4323;SDS011;2175;51.018;6.994;2023-12-29T02:35:26;8.97;;;2.30;;
4323;SDS011;2175;51.018;6.994;2023-12-29T02:37:54;8.80;;;2.23;;
4323;SDS011;2175;51.018;6.994;2023-12-29T02:40:20;9.50;;;2.70;;
4323;SDS011;2175;51.018;6.994;2023-12-29T02:42:47;9.63;;;2.30;;
4323;SDS011;2175;51.018;6.994;2023-12-29T02:45:14;8.40;;;2.03;;
4323;SDS011;2175;51.018;6.994;2023-12-29T02:47:40;8.30;;;2.33;;
4323;SDS011;2175;51.018;6.994;2023-12-29T02:50:07;9.80;;;2.50;;
4323;SDS011;2175;51.018;6.994;2023-12-29T02:52:33;10.73;;;2.70;;
4323;SDS011;2175;51.018;6.994;2023-12-29T02:54:59;8.40;;;2.30;;
4323;SDS011;2175;51.018;6.994;2023-12-29T02:57:25;10.17;;;2.63;;
4323;SDS011;2175;51.018;6.994;2023-12-29T02:59:51;6.40;;;2.30;;
4323;SDS011;2175;51.018;6.994;2023-12-29T03:02:17;8.00;;;2.40;;
4323;SDS011;2175;51.018;6.994;2023-12-29T03:04:43;10.43;;;2.63;;
4323;SDS011;2175;51.018;6.994;2023-12-29T03:07:09;7.23;;;2.27;;
4323;SDS011;2175;51.018;6.994;2023-12-29T03:09:35;8.30;;;3.03;;
4323;SDS011;2175;51.018;6.994;2023-12-29T03:12:01;8.53;;;2.80;;
4323;SDS011;2175;51.018;6.994;2023-12-29T03:14:27;10.37;;;2.30;;
4323;SDS011;2175;51.018;6.994;2023-12-29T03:16:53;9.00;;;2.00;;
4323;SDS011;2175;51.018;6.994;2023-12-29T03:19:19;9.73;;;2.53;;
4323;SDS011;2175;51.018;6.994;2023-12-29T03:21:45;10.10;;;2.43;;
4323;SDS011;2175;51.018;6.994;2023-12-29T03:24:11;9.40;;;2.57;;
4323;SDS011;2175;51.018;6.994;2023-12-29T03:26:37;5.10;;;2.20;;
4323;SDS011;2175;51.018;6.994;2023-12-29T03:29:03;7.50;;;2.50;;
4323;SDS011;2175;51.018;6.994;2023-12-29T03:31:29;10.30;;;1.97;;
4323;SDS011;2175;51.018;6.994;2023-12-29T03:33:55;8.50;;;2.10;;
4323;SDS011;2175;51.018;6.994;2023-12-29T03:36:21;10.50;;;2.23;;
4323;SDS011;2175;51.018;6.994;2023-12-29T03:38:47;10.40;;;2.63;;
4323;SDS011;2175;51.018;6.994;2023-12-29T03:41:13;11.97;;;2.23;;
4323;SDS011;2175;51.018;6.994;2023-12-29T03:43:39;7.03;;;2.30;;
4323;SDS011;2175;51.018;6.994;2023-12-29T03:46:18;7.53;;;2.40;;
4323;SDS011;2175;51.018;6.994;2023-12-29T03:48:44;9.57;;;2.27;;
4323;SDS011;2175;51.018;6.994;2023-12-29T03:51:10;14.83;;;2.20;;
4323;SDS011;2175;51.018;6.994;2023-12-29T03:53:36;7.33;;;2.20;;
4323;SDS011;2175;51.018;6.994;2023-12-29T03:56:06;9.60;;;2.27;;
4323;SDS011;2175;51.018;6.994;2023-12-29T03:58:32;12.60;;;2.60;;
4323;SDS011;2175;51.018;6.994;2023-12-29T04:00:58;8.00;;;2.00;;
4323;SDS011;2175;51.018;6.994;2023-12-29T04:03:24;7.40;;;2.00;;
4323;SDS011;2175;51.018;6.994;2023-12-29T04:05:50;5.60;;;2.10;;
4323;SDS011;2175;51.018;6.994;2023-12-29T04:08:16;11.60;;;2.60;;
4323;SDS011;2175;51.018;6.994;2023-12-29T04:10:42;11.57;;;2.60;;
4323;SDS011;2175;51.018;6.994;2023-12-29T04:13:08;6.83;;;2.17;;
4323;SDS011;2175;51.018;6.994;2023-12-29T04:15:34;7.43;;;2.50;;
4323;SDS011;2175;51.018;6.994;2023-12-29T04:18:00;8.53;;;2.20;;
4323;SDS011;2175;51.018;6.994;2023-12-29T04:20:26;5.80;;;2.03;;
4323;SDS011;2175;51.018;6.994;2023-12-29T04:22:52;7.43;;;2.50;;
4323;SDS011;2175;51.018;6.994;2023-12-29T04:25:18;8.67;;;2.17;;
4323;SDS011;2175;51.018;6.994;2023-12-29T04:27:44;5.67;;;1.93;;
4323;SDS011;2175;51.018;6.994;2023-12-29T04:30:10;9.00;;;2.87;;
4323;SDS011;2175;51.018;6.994;2023-12-29T04:32:36;10.47;;;2.60;;
4323;SDS011;2175;51.018;6.994;2023-12-29T04:35:02;8.43;;;2.40;;
4323;SDS011;2175;51.018;6.994;2023-12-29T04:37:28;10.17;;;2.30;;
4323;SDS011;2175;51.018;6.994;2023-12-29T04:39:54;6.83;;;2.47;;
4323;SDS011;2175;51.018;6.994;2023-12-29T04:42:20;6.97;;;2.30;;
4323;SDS011;2175;51.018;6.994;2023-12-29T04:44:46;10.70;;;2.10;;
4323;SDS011;2175;51.018;6.994;2023-12-29T04:47:12;14.20;;;2.50;;
4323;SDS011;2175;51.018;6.994;2023-12-29T04:49:38;9.90;;;2.13;;
4323;SDS011;2175;51.018;6.994;2023-12-29T04:52:04;14.63;;;2.77;;
4323;SDS011;2175;51.018;6.994;2023-12-29T04:54:30;8.60;;;2.67;;
4323;SDS011;2175;51.018;6.994;2023-12-29T04:56:56;13.43;;;2.50;;
4323;SDS011;2175;51.018;6.994;2023-12-29T04:59:22;7.73;;;2.27;;
4323;SDS011;2175;51.018;6.994;2023-12-29T05:01:48;8.73;;;2.50;;
4323;SDS011;2175;51.018;6.994;2023-12-29T05:04:14;9.80;;;2.23;;
4323;SDS011;2175;51.018;6.994;2023-12-29T05:06:41;8.20;;;2.20;;
4323;SDS011;2175;51.018;6.994;2023-12-29T05:09:07;11.40;;;2.40;;
4323;SDS011;2175;51.018;6.994;2023-12-29T05:11:33;5.63;;;2.20;;
4323;SDS011;2175;51.018;6.994;2023-12-29T05:13:59;9.63;;;2.80;;
4323;SDS011;2175;51.018;6.994;2023-12-29T05:16:25;7.30;;;2.50;;
4323;SDS011;2175;51.018;6.994;2023-12-29T05:18:51;14.57;;;2.50;;
4323;SDS011;2175;51.018;6.994;2023-12-29T05:21:18;10.50;;;2.40;;
4323;SDS011;2175;51.018;6.994;2023-12-29T05:23:44;16.23;;;2.33;;
4323;SDS011;2175;51.018;6.994;2023-12-29T05:26:11;8.20;;;2.13;;
4323;SDS011;2175;51.018;6.994;2023-12-29T05:28:37;11.77;;;2.63;;
4323;SDS011;2175;51.018;6.994;2023-12-29T05:31:03;15.67;;;3.00;;
4323;SDS011;2175;51.018;6.994;2023-12-29T05:33:32;8.87;;;2.20;;
4323;SDS011;2175;51.018;6.994;2023-12-29T05:35:59;10.63;;;2.63;;
4323;SDS011;2175;51.018;6.994;2023-12-29T05:38:25;4.20;;;1.63;;
4323;SDS011;2175;51.018;6.994;2023-12-29T05:40:51;5.60;;;2.30;;
4323;SDS011;2175;51.018;6.994;2023-12-29T05:43:17;11.43;;;2.23;;
4323;SDS011;2175;51.018;6.994;2023-12-29T05:45:43;11.80;;;2.17;;
4323;SDS011;2175;51.018;6.994;2023-12-29T05:48:09;6.30;;;2.27;;
4323;SDS011;2175;51.018;6.994;2023-12-29T05:50:36;17.93;;;2.70;;
4323;SDS011;2175;51.018;6.994;2023-12-29T05:53:02;12.67;;;2.53;;
4323;SDS011;2175;51.018;6.994;2023-12-29T05:55:28;16.23;;;2.23;;
4323;SDS011;2175;51.018;6.994;2023-12-29T05:57:54;6.53;;;2.10;;
4323;SDS011;2175;51.018;6.994;2023-12-29T06:00:20;10.07;;;2.57;;
4323;SDS011;2175;51.018;6.994;2023-12-29T06:02:46;9.97;;;2.60;;
4323;SDS011;2175;51.018;6.994;2023-12-29T06:05:12;9.23;;;2.53;;
4323;SDS011;2175;51.018;6.994;2023-12-29T06:07:38;11.97;;;2.80;;
4323;SDS011;2175;51.018;6.994;2023-12-29T06:10:05;9.40;;;2.30;;
4323;SDS011;2175;51.018;6.994;2023-12-29T06:12:31;7.83;;;2.00;;
4323;SDS011;2175;51.018;6.994;2023-12-29T06:14:57;7.83;;;2.10;;
4323;SDS011;2175;51.018;6.994;2023-12-29T06:17:23;11.43;;;2.73;;
4323;SDS011;2175;51.018;6.994;2023-12-29T06:19:49;6.97;;;2.20;;
4323;SDS011;2175;51.018;6.994;2023-12-29T06:22:15;8.67;;;2.07;;
4323;SDS011;2175;51.018;6.994;2023-12-29T06:24:41;8.00;;;2.13;;
4323;SDS011;2175;51.018;6.994;2023-12-29T06:27:11;6.10;;;2.20;;
4323;SDS011;2175;51.018;6.994;2023-12-29T06:29:37;9.67;;;2.10;;
4323;SDS011;2175;51.018;6.994;2023-12-29T06:32:03;11.77;;;2.47;;
4323;SDS011;2175;51.018;6.994;2023-12-29T06:34:30;6.70;;;1.90;;
4323;SDS011;2175;51.018;6.994;2023-12-29T06:36:56;7.10;;;2.43;;
4323;SDS011;2175;51.018;6.994;2023-12-29T06:39:22;10.17;;;1.83;;
4323;SDS011;2175;51.018;6.994;2023-12-29T06:41:48;7.10;;;2.13;;
4323;SDS011;2175;51.018;6.994;2023-12-29T06:44:14;15.97;;;2.63;;
4323;SDS011;2175;51.018;6.994;2023-12-29T06:46:40;5.93;;;1.83;;
4323;SDS011;2175;51.018;6.994;2023-12-29T06:49:07;6.03;;;2.10;;
4323;SDS011;2175;51.018;6.994;2023-12-29T06:51:33;8.10;;;1.83;;
4323;SDS011;2175;51.018;6.994;2023-12-29T06:54:00;8.20;;;2.00;;
4323;SDS011;2175;51.018;6.994;2023-12-29T06:56:27;9.60;;;2.00;;
4323;SDS011;2175;51.018;6.994;2023-12-29T06:58:53;6.10;;;2.10;;
4323;SDS011;2175;51.018;6.994;2023-12-29T07:01:19;7.43;;;2.10;;
4323;SDS011;2175;51.018;6.994;2023-12-29T07:03:45;6.60;;;2.17;;
4323;SDS011;2175;51.018;6.994;2023-12-29T07:06:11;9.27;;;2.40;;
4323;SDS011;2175;51.018;6.994;2023-12-29T07:08:37;7.47;;;2.40;;
4323;SDS011;2175;51.018;6.994;2023-12-29T07:11:03;10.00;;;2.43;;
4323;SDS011;2175;51.018;6.994;2023-12-29T07:13:29;8.50;;;2.50;;
4323;SDS011;2175;51.018;6.994;2023-12-29T07:15:55;13.77;;;2.53;;
4323;SDS011;2175;51.018;6.994;2023-12-29T07:18:22;9.10;;;2.47;;
4323;SDS011;2175;51.018;6.994;2023-12-29T07:20:48;5.57;;;2.20;;
4323;SDS011;2175;51.018;6.994;2023-12-29T07:23:14;8.13;;;2.27;;
4323;SDS011;2175;51.018;6.994;2023-12-29T07:25:40;11.20;;;2.40;;
4323;SDS011;2175;51.018;6.994;2023-12-29T07:28:06;6.13;;;2.17;;
4323;SDS011;2175;51.018;6.994;2023-12-29T07:30:32;9.07;;;2.53;;
4323;SDS011;2175;51.018;6.994;2023-12-29T07:32:58;9.23;;;1.90;;
4323;SDS011;2175;51.018;6.994;2023-12-29T07:35:24;12.30;;;2.80;;
4323;SDS011;2175;51.018;6.994;2023-12-29T07:37:50;3.47;;;1.50;;
4323;SDS011;2175;51.018;6.994;2023-12-29T07:40:16;9.27;;;1.97;;
4323;SDS011;2175;51.018;6.994;2023-12-29T07:42:42;11.63;;;2.17;;
4323;SDS011;2175;51.018;6.994;2023-12-29T07:45:09;4.57;;;2.00;;
4323;SDS011;2175;51.018;6.994;2023-12-29T07:47:35;9.67;;;2.00;;
4323;SDS011;2175;51.018;6.994;2023-12-29T07:50:01;6.03;;;1.73;;
4323;SDS011;2175;51.018;6.994;2023-12-29T07:52:28;8.93;;;2.40;;
4323;SDS011;2175;51.018;6.994;2023-12-29T07:54:54;9.83;;;2.17;;
4323;SDS011;2175;51.018;6.994;2023-12-29T07:57:20;7.47;;;2.20;;
4323;SDS011;2175;51.018;6.994;2023-12-29T07:59:47;10.70;;;1.80;;
4323;SDS011;2175;51.018;6.994;2023-12-29T08:02:13;7.07;;;1.60;;
4323;SDS011;2175;51.018;6.994;2023-12-29T08:04:39;8.63;;;1.90;;
4323;SDS011;2175;51.018;6.994;2023-12-29T08:07:05;7.20;;;2.27;;
4323;SDS011;2175;51.018;6.994;2023-12-29T08:09:31;6.93;;;2.13;;
4323;SDS011;2175;51.018;6.994;2023-12-29T08:11:57;10.97;;;2.17;;
4323;SDS011;2175;51.018;6.994;2023-12-29T08:14:23;4.83;;;1.80;;
4323;SDS011;2175;51.018;6.994;2023-12-29T08:16:49;9.27;;;2.30;;
4323;SDS011;2175;51.018;6.994;2023-12-29T08:19:14;11.33;;;2.40;;
4323;SDS011;2175;51.018;6.994;2023-12-29T08:21:41;3.40;;;1.53;;
4323;SDS011;2175;51.018;6.994;2023-12-29T08:24:07;6.07;;;1.90;;
4323;SDS011;2175;51.018;6.994;2023-12-29T08:26:33;13.03;;;1.80;;
4323;SDS011;2175;51.018;6.994;2023-12-29T08:28:59;6.60;;;1.90;;
4323;SDS011;2175;51.018;6.994;2023-12-29T08:31:25;14.00;;;2.53;;
4323;SDS011;2175;51.018;6.994;2023-12-29T08:33:56;6.50;;;2.10;;
4323;SDS011;2175;51.018;6.994;2023-12-29T08:36:22;4.53;;;1.90;;
4323;SDS011;2175;51.018;6.994;2023-12-29T08:38:48;6.23;;;1.87;;
4323;SDS011;2175;51.018;6.994;2023-12-29T08:41:14;9.73;;;2.30;;
4323;SDS011;2175;51.018;6.994;2023-12-29T08:43:40;6.93;;;2.10;;
4323;SDS011;2175;51.018;6.994;2023-12-29T08:46:06;6.10;;;1.80;;
4323;SDS011;2175;51.018;6.994;2023-12-29T08:48:32;6.77;;;2.10;;
4323;SDS011;2175;51.018;6.994;2023-12-29T08:50:59;8.27;;;2.20;;
4323;SDS011;2175;51.018;6.994;2023-12-29T08:53:26;6.13;;;2.10;;
4323;SDS011;2175;51.018;6.994;2023-12-29T08:55:52;10.03;;;2.60;;
4323;SDS011;2175;51.018;6.994;2023-12-29T08:58:18;7.97;;;2.07;;
4323;SDS011;2175;51.018;6.994;2023-12-29T09:00:44;10.83;;;1.90;;
4323;SDS011;2175;51.018;6.994;2023-12-29T09:03:10;9.20;;;2.30;;
4323;SDS011;2175;51.018;6.994;2023-12-29T09:05:36;7.70;;;2.30;;
4323;SDS011;2175;51.018;6.994;2023-12-29T09:08:01;8.00;;;2.17;;
4323;SDS011;2175;51.018;6.994;2023-12-29T09:10:27;10.90;;;2.70;;
4323;SDS011;2175;51.018;6.994;2023-12-29T09:12:53;6.40;;;2.43;;
4323;SDS011;2175;51.018;6.994;2023-12-29T09:15:20;7.10;;;2.10;;
4323;SDS011;2175;51.018;6.994;2023-12-29T09:17:46;5.90;;;1.80;;
4323;SDS011;2175;51.018;6.994;2023-12-29T09:20:12;7.67;;;1.90;;
4323;SDS011;2175;51.018;6.994;2023-12-29T09:22:39;9.90;;;2.03;;
4323;SDS011;2175;51.018;6.994;2023-12-29T09:25:05;7.33;;;2.17;;
4323;SDS011;2175;51.018;6.994;2023-12-29T09:27:31;8.37;;;2.13;;
4323;SDS011;2175;51.018;6.994;2023-12-29T09:29:57;9.30;;;2.20;;
4323;SDS011;2175;51.018;6.994;2023-12-29T09:32:23;6.40;;;2.00;;
4323;SDS011;2175;51.018;6.994;2023-12-29T09:34:49;8.33;;;2.50;;
4323;SDS011;2175;51.018;6.994;2023-12-29T09:37:15;11.73;;;2.90;;
4323;SDS011;2175;51.018;6.994;2023-12-29T09:39:41;6.73;;;2.00;;
4323;SDS011;2175;51.018;6.994;2023-12-29T09:42:07;7.20;;;2.27;;
4323;SDS011;2175;51.018;6.994;2023-12-29T09:44:39;14.40;;;2.40;;
4323;SDS011;2175;51.018;6.994;2023-12-29T09:47:05;8.73;;;2.53;;
4323;SDS011;2175;51.018;6.994;2023-12-29T09:49:36;9.93;;;2.33;;
4323;SDS011;2175;51.018;6.994;2023-12-29T09:52:04;6.43;;;1.70;;
4323;SDS011;2175;51.018;6.994;2023-12-29T09:54:31;6.77;;;2.17;;
4323;SDS011;2175;51.018;6.994;2023-12-29T09:56:57;6.13;;;2.20;;
4323;SDS011;2175;51.018;6.994;2023-12-29T09:59:23;6.60;;;1.80;;
4323;SDS011;2175;51.018;6.994;2023-12-29T10:01:50;11.60;;;1.90;;
4323;SDS011;2175;51.018;6.994;2023-12-29T10:04:17;5.20;;;2.17;;
4323;SDS011;2175;51.018;6.994;2023-12-29T10:06:44;9.13;;;1.93;;
4323;SDS011;2175;51.018;6.994;2023-12-29T10:09:13;6.63;;;2.03;;
4323;SDS011;2175;51.018;6.994;2023-12-29T10:11:42;7.90;;;1.83;;
4323;SDS011;2175;51.018;6.994;2023-12-29T10:15:10;6.70;;;2.30;;
4323;SDS011;2175;51.018;6.994;2023-12-29T10:17:06;11.60;;;2.00;;
4323;SDS011;2175;51.018;6.994;2023-12-29T10:22:26;6.60;;;1.50;;
4323;SDS011;2175;51.018;6.994;2023-12-29T10:24:54;3.50;;;1.60;;
4323;SDS011;2175;51.018;6.994;2023-12-29T10:27:20;5.90;;;1.70;;
4323;SDS011;2175;51.018;6.994;2023-12-29T10:29:48;1.97;;;1.40;;
4323;SDS011;2175;51.018;6.994;2023-12-29T10:32:14;4.27;;;1.40;;
4323;SDS011;2175;51.018;6.994;2023-12-29T10:34:39;3.37;;;1.30;;
4323;SDS011;2175;51.018;6.994;2023-12-29T10:37:06;2.60;;;1.30;;
4323;SDS011;2175;51.018;6.994;2023-12-29T10:39:38;3.73;;;1.50;;
4323;SDS011;2175;51.018;6.994;2023-12-29T10:42:05;2.60;;;1.27;;
4323;SDS011;2175;51.018;6.994;2023-12-29T10:44:32;4.40;;;1.33;;
4323;SDS011;2175;51.018;6.994;2023-12-29T10:46:58;3.13;;;1.40;;
4323;SDS011;2175;51.018;6.994;2023-12-29T10:49:24;3.83;;;1.30;;
4323;SDS011;2175;51.018;6.994;2023-12-29T10:51:50;4.37;;;1.43;;
4323;SDS011;2175;51.018;6.994;2023-12-29T10:54:19;2.50;;;1.20;;
4323;SDS011;2175;51.018;6.994;2023-12-29T10:56:59;5.97;;;1.50;;
4323;SDS011;2175;51.018;6.994;2023-12-29T10:59:26;2.30;;;1.07;;
4323;SDS011;2175;51.018;6.994;2023-12-29T11:01:52;3.90;;;1.20;;
4323;SDS011;2175;51.018;6.994;2023-12-29T11:04:21;4.63;;;1.40;;
4323;SDS011;2175;51.018;6.994;2023-12-29T11:06:47;3.73;;;1.30;;
4323;SDS011;2175;51.018;6.994;2023-12-29T11:09:37;1.33;;;0.97;;
4323;SDS011;2175;51.018;6.994;2023-12-29T11:12:03;2.30;;;1.00;;
4323;SDS011;2175;51.018;6.994;2023-12-29T11:14:32;3.17;;;1.30;;
4323;SDS011;2175;51.018;6.994;2023-12-29T11:16:59;6.40;;;1.50;;
4323;SDS011;2175;51.018;6.994;2023-12-29T11:19:26;7.87;;;1.70;;
4323;SDS011;2175;51.018;6.994;2023-12-29T11:21:52;4.97;;;1.37;;
4323;SDS011;2175;51.018;6.994;2023-12-29T11:24:19;5.10;;;1.70;;
4323;SDS011;2175;51.018;6.994;2023-12-29T11:26:45;1.70;;;1.20;;
4323;SDS011;2175;51.018;6.994;2023-12-29T11:29:11;4.17;;;1.40;;
4323;SDS011;2175;51.018;6.994;2023-12-29T11:31:38;2.50;;;1.50;;
4323;SDS011;2175;51.018;6.994;2023-12-29T11:34:05;3.20;;;1.30;;
4323;SDS011;2175;51.018;6.994;2023-12-29T11:36:33;4.50;;;1.63;;
4323;SDS011;2175;51.018;6.994;2023-12-29T11:44:36;5.70;;;1.50;;
4323;SDS011;2175;51.018;6.994;2023-12-29T11:47:02;3.80;;;1.17;;
4323;SDS011;2175;51.018;6.994;2023-12-29T11:50:15;7.53;;;1.47;;
4323;SDS011;2175;51.018;6.994;2023-12-29T11:52:31;2.83;;;1.30;;
4323;SDS011;2175;51.018;6.994;2023-12-29T11:55:20;4.03;;;1.40;;
4323;SDS011;2175;51.018;6.994;2023-12-29T11:57:48;2.67;;;1.37;;
4323;SDS011;2175;51.018;6.994;2023-12-29T12:00:14;5.83;;;1.40;;
4323;SDS011;2175;51.018;6.994;2023-12-29T12:02:41;3.67;;;1.40;;
4323;SDS011;2175;51.018;6.994;2023-12-29T12:05:10;6.00;;;1.50;;
4323;SDS011;2175;51.018;6.994;2023-12-29T12:12:48;4.00;;;1.47;;
4323;SDS011;2175;51.018;6.994;2023-12-29T12:18:01;6.90;;;1.57;;
4323;SDS011;2175;51.018;6.994;2023-12-29T12:20:32;2.37;;;1.13;;
4323;SDS011;2175;51.018;6.994;2023-12-29T12:23:00;2.97;;;1.60;;
4323;SDS011;2175;51.018;6.994;2023-12-29T12:25:27;2.77;;;1.10;;
4323;SDS011;2175;51.018;6.994;2023-12-29T12:27:53;2.20;;;1.27;;
4323;SDS011;2175;51.018;6.994;2023-12-29T12:30:19;6.67;;;1.50;;
4323;SDS011;2175;51.018;6.994;2023-12-29T12:32:46;5.20;;;1.20;;
4323;SDS011;2175;51.018;6.994;2023-12-29T12:35:15;4.17;;;1.40;;
4323;SDS011;2175;51.018;6.994;2023-12-29T12:37:41;5.07;;;1.37;;
4323;SDS011;2175;51.018;6.994;2023-12-29T12:40:07;2.00;;;1.17;;
4323;SDS011;2175;51.018;6.994;2023-12-29T12:42:37;1.50;;;1.00;;
4323;SDS011;2175;51.018;6.994;2023-12-29T12:45:17;4.30;;;1.10;;
4323;SDS011;2175;51.018;6.994;2023-12-29T12:47:50;1.93;;;0.90;;
4323;SDS011;2175;51.018;6.994;2023-12-29T12:50:17;3.30;;;1.23;;
4323;SDS011;2175;51.018;6.994;2023-12-29T12:52:43;2.20;;;1.13;;
4323;SDS011;2175;51.018;6.994;2023-12-29T12:55:09;2.37;;;1.20;;
4323;SDS011;2175;51.018;6.994;2023-12-29T12:57:35;2.50;;;1.00;;
4323;SDS011;2175;51.018;6.994;2023-12-29T13:00:02;7.30;;;1.60;;
4323;SDS011;2175;51.018;6.994;2023-12-29T13:02:28;1.90;;;0.90;;
4323;SDS011;2175;51.018;6.994;2023-12-29T13:04:55;2.60;;;1.07;;
4323;SDS011;2175;51.018;6.994;2023-12-29T13:07:21;1.37;;;0.87;;
4323;SDS011;2175;51.018;6.994;2023-12-29T13:09:48;2.03;;;1.10;;
4323;SDS011;2175;51.018;6.994;2023-12-29T13:12:15;3.23;;;1.20;;
4323;SDS011;2175;51.018;6.994;2023-12-29T13:14:42;3.13;;;1.20;;
4323;SDS011;2175;51.018;6.994;2023-12-29T13:17:09;1.77;;;0.97;;
4323;SDS011;2175;51.018;6.994;2023-12-29T13:19:39;2.70;;;1.10;;
4323;SDS011;2175;51.018;6.994;2023-12-29T13:22:07;2.60;;;1.17;;
4323;SDS011;2175;51.018;6.994;2023-12-29T13:24:33;4.83;;;1.20;;
4323;SDS011;2175;51.018;6.994;2023-12-29T13:27:04;1.97;;;0.90;;
4323;SDS011;2175;51.018;6.994;2023-12-29T13:29:31;2.90;;;0.97;;
4323;SDS011;2175;51.018;6.994;2023-12-29T13:32:42;3.33;;;1.10;;
4323;SDS011;2175;51.018;6.994;2023-12-29T13:34:48;1.50;;;1.00;;
4323;SDS011;2175;51.018;6.994;2023-12-29T13:37:18;2.70;;;1.00;;
4323;SDS011;2175;51.018;6.994;2023-12-29T13:39:50;3.57;;;1.20;;
4323;SDS011;2175;51.018;6.994;2023-12-29T13:42:17;3.10;;;1.30;;
4323;SDS011;2175;51.018;6.994;2023-12-29T13:44:43;1.93;;;1.07;;
4323;SDS011;2175;51.018;6.994;2023-12-29T13:47:09;2.80;;;1.20;;
4323;SDS011;2175;51.018;6.994;2023-12-29T13:49:36;3.67;;;1.10;;
4323;SDS011;2175;51.018;6.994;2023-12-29T13:52:03;3.30;;;1.33;;
4323;SDS011;2175;51.018;6.994;2023-12-29T13:54:30;3.27;;;1.30;;
4323;SDS011;2175;51.018;6.994;2023-12-29T13:56:56;2.40;;;1.10;;
4323;SDS011;2175;51.018;6.994;2023-12-29T13:59:29;2.57;;;1.10;;
4323;SDS011;2175;51.018;6.994;2023-12-29T14:01:59;1.73;;;1.10;;
4323;SDS011;2175;51.018;6.994;2023-12-29T14:04:28;7.00;;;1.10;;
4323;SDS011;2175;51.018;6.994;2023-12-29T14:07:01;3.00;;;1.13;;
4323;SDS011;2175;51.018;6.994;2023-12-29T14:12:26;2.73;;;1.07;;
4323;SDS011;2175;51.018;6.994;2023-12-29T14:14:52;2.37;;;1.10;;
4323;SDS011;2175;51.018;6.994;2023-12-29T14:17:21;1.53;;;1.17;;
4323;SDS011;2175;51.018;6.994;2023-12-29T14:19:47;2.33;;;1.00;;
4323;SDS011;2175;51.018;6.994;2023-12-29T14:22:20;3.27;;;1.10;;
4323;SDS011;2175;51.018;6.994;2023-12-29T14:24:58;5.10;;;1.00;;
4323;SDS011;2175;51.018;6.994;2023-12-29T14:27:25;3.27;;;1.13;;
4323;SDS011;2175;51.018;6.994;2023-12-29T14:29:52;2.90;;;1.20;;
4323;SDS011;2175;51.018;6.994;2023-12-29T14:32:18;4.40;;;1.10;;
4323;SDS011;2175;51.018;6.994;2023-12-29T14:34:45;1.63;;;1.03;;
4323;SDS011;2175;51.018;6.994;2023-12-29T14:37:17;1.20;;;1.00;;
4323;SDS011;2175;51.018;6.994;2023-12-29T14:39:47;1.47;;;0.87;;
4323;SDS011;2175;51.018;6.994;2023-12-29T14:42:13;1.63;;;0.90;;
4323;SDS011;2175;51.018;6.994;2023-12-29T14:44:39;1.97;;;1.00;;
4323;SDS011;2175;51.018;6.994;2023-12-29T14:47:05;2.03;;;1.17;;
4323;SDS011;2175;51.018;6.994;2023-12-29T14:49:31;3.33;;;1.30;;
4323;SDS011;2175;51.018;6.994;2023-12-29T14:51:57;2.33;;;1.20;;
4323;SDS011;2175;51.018;6.994;2023-12-29T14:54:23;2.70;;;1.10;;
4323;SDS011;2175;51.018;6.994;2023-12-29T14:56:49;1.33;;;0.90;;
4323;SDS011;2175;51.018;6.994;2023-12-29T14:59:15;2.33;;;1.20;;
4323;SDS011;2175;51.018;6.994;2023-12-29T15:01:41;3.73;;;1.20;;
4323;SDS011;2175;51.018;6.994;2023-12-29T15:04:07;4.63;;;1.20;;
4323;SDS011;2175;51.018;6.994;2023-12-29T15:06:36;4.40;;;1.53;;
4323;SDS011;2175;51.018;6.994;2023-12-29T15:09:02;1.50;;;1.07;;
4323;SDS011;2175;51.018;6.994;2023-12-29T15:11:28;2.07;;;1.10;;
4323;SDS011;2175;51.018;6.994;2023-12-29T15:13:54;1.77;;;1.07;;
4323;SDS011;2175;51.018;6.994;2023-12-29T15:16:20;3.13;;;1.33;;
4323;SDS011;2175;51.018;6.994;2023-12-29T15:18:46;4.27;;;1.20;;
4323;SDS011;2175;51.018;6.994;2023-12-29T15:21:12;1.93;;;1.13;;
4323;SDS011;2175;51.018;6.994;2023-12-29T15:23:38;3.13;;;1.40;;
4323;SDS011;2175;51.018;6.994;2023-12-29T15:26:04;3.77;;;1.20;;
4323;SDS011;2175;51.018;6.994;2023-12-29T15:28:30;2.83;;;1.17;;
4323;SDS011;2175;51.018;6.994;2023-12-29T15:30:57;3.40;;;1.20;;